createdAt,value
2023-07-20T00:01:01.424Z,98067.16
2023-07-20T00:03:28.567Z,98047.97
2023-07-20T00:05:55.708Z,98064.88
2023-07-20T00:08:22.938Z,98061.41
2023-07-20T00:10:50.028Z,98056.47
2023-07-20T00:13:17.267Z,98055.56
2023-07-20T00:15:44.331Z,98035.75
2023-07-20T00:18:11.587Z,98060.75
2023-07-20T00:20:38.686Z,98063.69
2023-07-20T00:23:06.233Z,98049.16
2023-07-20T00:25:35.610Z,98040.56
2023-07-20T00:28:03.101Z,98066.34
2023-07-20T00:30:30.412Z,98066.00
2023-07-20T00:32:57.599Z,98053.78
2023-07-20T00:35:24.715Z,98056.41
2023-07-20T00:37:51.859Z,98068.72
2023-07-20T00:40:19.288Z,98077.44
2023-07-20T00:42:46.940Z,98069.63
2023-07-20T00:45:14.013Z,98077.69
2023-07-20T00:47:42.086Z,98083.75
2023-07-20T00:50:11.461Z,98039.63
2023-07-20T00:52:42.843Z,98075.97
2023-07-20T00:55:10.589Z,98052.84
2023-07-20T00:57:37.904Z,98081.34
2023-07-20T01:00:07.935Z,98033.88
2023-07-20T01:02:35.422Z,98051.13
2023-07-20T01:05:02.812Z,98070.34
2023-07-20T01:07:40.186Z,98052.16
2023-07-20T01:10:22.428Z,98071.13
2023-07-20T01:12:53.419Z,98075.72
2023-07-20T01:15:20.553Z,98077.34
2023-07-20T01:17:47.880Z,98061.09
2023-07-20T01:20:17.550Z,98077.59
2023-07-20T01:23:11.993Z,98079.41
2023-07-20T01:26:07.279Z,98069.72
2023-07-20T01:28:49.763Z,98076.88
2023-07-20T01:31:22.411Z,98083.13
2023-07-20T01:33:51.363Z,98071.81
2023-07-20T01:36:19.677Z,98078.69
2023-07-20T01:38:47.882Z,98065.00
2023-07-20T01:41:16.559Z,98082.25
2023-07-20T01:43:43.946Z,98081.41
2023-07-20T01:46:11.344Z,98074.38
2023-07-20T01:48:38.588Z,98074.38
2023-07-20T01:51:05.762Z,98058.13
2023-07-20T01:53:32.907Z,98087.66
2023-07-20T01:55:59.973Z,98068.59
2023-07-20T01:58:27.068Z,98070.41
2023-07-20T02:00:54.282Z,98079.09
2023-07-20T02:03:23.226Z,98072.88
2023-07-20T02:05:52.622Z,98075.59
2023-07-20T02:08:19.693Z,98080.97
2023-07-20T02:10:49.590Z,98079.91
2023-07-20T02:13:18.215Z,98079.25
2023-07-20T02:15:48.582Z,98092.97
2023-07-20T02:18:16.414Z,98066.09
2023-07-20T02:20:43.807Z,98089.44
2023-07-20T02:23:11.993Z,98088.47
2023-07-20T02:25:39.556Z,98065.13
2023-07-20T02:28:10.694Z,98093.59
2023-07-20T02:30:41.046Z,98097.91
2023-07-20T02:33:08.922Z,98100.53
2023-07-20T02:35:36.217Z,98099.72
2023-07-20T02:38:03.345Z,98082.38
2023-07-20T02:40:30.481Z,98105.88
2023-07-20T02:42:57.556Z,98080.53
2023-07-20T02:45:25.002Z,98103.00
2023-07-20T02:47:52.865Z,98103.81
2023-07-20T02:50:20.229Z,98085.38
2023-07-20T02:52:47.451Z,98093.41
2023-07-20T02:55:14.717Z,98111.38
2023-07-20T02:57:41.738Z,98091.59
2023-07-20T03:00:09.449Z,98088.75
2023-07-20T03:02:36.749Z,98092.38
2023-07-20T03:05:07.270Z,98112.97
2023-07-20T03:07:34.549Z,98119.63
2023-07-20T03:10:01.689Z,98111.81
2023-07-20T03:12:31.095Z,98091.06
2023-07-20T03:14:58.280Z,98103.66
2023-07-20T03:17:26.615Z,98096.75
2023-07-20T03:19:53.881Z,98129.63
2023-07-20T03:22:22.761Z,98137.41
2023-07-20T03:24:49.910Z,98129.31
2023-07-20T03:27:16.956Z,98105.81
2023-07-20T03:29:48.447Z,98109.28
2023-07-20T03:32:15.779Z,98128.13
2023-07-20T03:34:42.972Z,98126.03
2023-07-20T03:37:10.051Z,98113.06
2023-07-20T03:39:37.652Z,98129.16
2023-07-20T03:42:06.196Z,98126.25
2023-07-20T03:44:35.037Z,98117.53
2023-07-20T03:47:02.450Z,98113.69
2023-07-20T03:49:30.165Z,98047.28
2023-07-20T03:51:57.205Z,98103.97
2023-07-20T03:54:38.702Z,98116.69
2023-07-20T03:57:19.986Z,98116.53
2023-07-20T03:59:47.838Z,98126.31
2023-07-20T04:02:15.057Z,98129.72
2023-07-20T04:04:43.771Z,98096.72
2023-07-20T04:07:10.902Z,98117.25
2023-07-20T04:09:38.040Z,98099.38
2023-07-20T04:12:05.279Z,98114.22
2023-07-20T04:14:32.392Z,98121.38
2023-07-20T04:17:01.715Z,98112.38
2023-07-20T04:19:28.924Z,98129.94
2023-07-20T04:21:56.265Z,98123.28
2023-07-20T04:24:23.661Z,98112.59
2023-07-20T04:26:51.124Z,98145.91
2023-07-20T04:29:19.410Z,98145.63
2023-07-20T04:31:47.412Z,98145.47
2023-07-20T04:34:14.548Z,98132.47
2023-07-20T04:36:41.737Z,98126.63
2023-07-20T04:39:21.524Z,98138.34
2023-07-20T04:41:49.851Z,98065.81
2023-07-20T04:44:18.227Z,98118.38
2023-07-20T04:46:47.329Z,98138.81
2023-07-20T04:49:35.921Z,98134.94
2023-07-20T04:52:07.535Z,98139.69
2023-07-20T04:54:41.909Z,98132.19
2023-07-20T04:57:14.380Z,98134.22
2023-07-20T04:59:46.394Z,98143.19
2023-07-20T05:02:13.567Z,98151.63
2023-07-20T05:04:40.771Z,98109.63
2023-07-20T05:07:08.174Z,98126.75
2023-07-20T05:09:35.463Z,98148.28
2023-07-20T05:12:03.307Z,98108.13
2023-07-20T05:14:30.844Z,98144.59
2023-07-20T05:16:58.043Z,98152.25
2023-07-20T05:19:27.074Z,98138.78
2023-07-20T05:21:55.128Z,98130.34
2023-07-20T05:24:27.649Z,98141.34
2023-07-20T05:26:55.526Z,98119.25
2023-07-20T05:29:54.925Z,98150.56
2023-07-20T05:32:22.331Z,98147.13
2023-07-20T05:34:53.686Z,98133.50
2023-07-20T05:37:21.576Z,98128.47
2023-07-20T05:39:48.733Z,98112.38
2023-07-20T05:42:15.882Z,98128.88
2023-07-20T05:44:43.248Z,98137.59
2023-07-20T05:47:11.294Z,98143.28
2023-07-20T05:49:39.207Z,98136.34
2023-07-20T05:52:11.752Z,98143.75
2023-07-20T05:54:51.155Z,98153.91
2023-07-20T05:57:47.606Z,98147.13
2023-07-20T06:03:28.412Z,98138.59
2023-07-20T06:06:02.267Z,98149.94
2023-07-20T06:08:30.640Z,98112.63
2023-07-20T06:11:00.843Z,98108.44
2023-07-20T06:13:29.029Z,98139.84
2023-07-20T06:16:06.280Z,98144.78
2023-07-20T06:18:34.069Z,98141.75
2023-07-20T06:21:06.567Z,98078.34
2023-07-20T06:30:07.341Z,98104.13
2023-07-20T06:32:57.869Z,98147.75
2023-07-20T06:35:33.176Z,98147.75
2023-07-20T06:38:31.950Z,98104.78
2023-07-20T06:40:49.582Z,98085.50
2023-07-20T06:46:04.129Z,98142.97
2023-07-20T06:48:31.807Z,98143.84
2023-07-20T06:51:02.804Z,98136.31
2023-07-20T06:53:39.333Z,98111.19
2023-07-20T06:56:16.608Z,98146.06
2023-07-20T06:58:55.094Z,98154.38
2023-07-20T07:01:24.240Z,98119.44
2023-07-20T07:03:54.166Z,98140.66
2023-07-20T07:06:26.694Z,98140.97
2023-07-20T07:08:55.990Z,98024.75
2023-07-20T07:11:27.249Z,98153.59
2023-07-20T07:13:57.440Z,98141.25
2023-07-20T07:16:28.448Z,98133.63
2023-07-20T07:19:00.259Z,98149.19
2023-07-20T07:21:28.947Z,98129.94
2023-07-20T07:23:59.240Z,98162.94
2023-07-20T07:26:31.060Z,98160.50
2023-07-20T07:29:01.804Z,98163.09
2023-07-20T07:31:31.564Z,98147.78
2023-07-20T07:34:02.006Z,98148.00
2023-07-20T07:36:33.940Z,98155.28
2023-07-20T07:39:33.445Z,98142.03
2023-07-20T07:41:50.913Z,98167.78
2023-07-20T07:44:19.707Z,98137.19
2023-07-20T07:46:46.753Z,98168.19
2023-07-20T07:49:13.844Z,98165.94
2023-07-20T07:51:40.868Z,98131.97
2023-07-20T07:54:08.119Z,98162.50
2023-07-20T07:56:35.325Z,98172.16
2023-07-20T07:59:02.503Z,98153.63
2023-07-20T08:01:29.892Z,98151.09
2023-07-20T08:03:57.462Z,98168.50
2023-07-20T08:06:25.807Z,98134.13
2023-07-20T08:08:53.201Z,98166.03
2023-07-20T08:11:20.510Z,98127.66
2023-07-20T08:13:47.657Z,98174.91
2023-07-20T08:16:15.341Z,98179.53
2023-07-20T08:18:42.725Z,98167.53
2023-07-20T08:21:10.041Z,98152.66
2023-07-20T08:23:37.417Z,98135.84
2023-07-20T08:26:05.252Z,98159.66
2023-07-20T08:28:32.715Z,98173.03
2023-07-20T08:30:59.743Z,98164.31
2023-07-20T08:33:30.671Z,98145.25
2023-07-20T08:35:58.861Z,98184.41
2023-07-20T08:38:25.981Z,98188.13
2023-07-20T08:40:55.095Z,98167.09
2023-07-20T08:43:27.615Z,98165.22
2023-07-20T08:46:04.325Z,98167.84
2023-07-20T08:48:33.695Z,98171.00
2023-07-20T08:51:02.577Z,98147.03
2023-07-20T08:53:32.965Z,98130.41
2023-07-20T08:56:01.973Z,98149.13
2023-07-20T08:58:30.172Z,98158.72
2023-07-20T09:01:00.729Z,98172.44
2023-07-20T09:03:28.373Z,98165.66
2023-07-20T09:05:55.488Z,98151.84
2023-07-20T09:08:22.808Z,98173.34
2023-07-20T09:10:50.911Z,98171.13
2023-07-20T09:13:21.631Z,98184.69
2023-07-20T09:15:49.392Z,98185.59
2023-07-20T09:18:26.767Z,98183.03
2023-07-20T09:20:54.159Z,98164.91
2023-07-20T09:23:21.388Z,98195.47
2023-07-20T09:25:52.229Z,98191.50
2023-07-20T09:28:19.553Z,98175.91
2023-07-20T09:30:53.977Z,98170.22
2023-07-20T09:33:28.042Z,98196.56
2023-07-20T09:35:56.225Z,98188.66
2023-07-20T09:38:24.535Z,98175.88
2023-07-20T09:40:55.592Z,98181.25
2023-07-20T09:43:26.575Z,98196.09
2023-07-20T09:45:59.109Z,98171.25
2023-07-20T09:51:01.213Z,98197.88
2023-07-20T09:53:30.115Z,98203.97
2023-07-20T09:55:58.302Z,98200.06
2023-07-20T09:58:27.386Z,98193.72
2023-07-20T10:00:58.613Z,98223.25
2023-07-20T10:03:33.119Z,98180.75
2023-07-20T10:06:09.146Z,98192.72
2023-07-20T10:11:15.943Z,98181.56
2023-07-20T10:13:46.045Z,98205.38
2023-07-20T10:16:23.742Z,98152.41
2023-07-20T10:21:51.389Z,98176.50
2023-07-20T10:24:26.016Z,98182.09
2023-07-20T10:26:54.647Z,98203.09
2023-07-20T10:29:26.885Z,98196.06
2023-07-20T10:31:59.329Z,98193.94
2023-07-20T10:34:30.277Z,98191.50
2023-07-20T10:37:24.029Z,98177.09
2023-07-20T10:43:11.397Z,98185.13
2023-07-20T10:45:41.108Z,98188.66
2023-07-20T10:48:16.116Z,98151.91
2023-07-20T10:53:51.119Z,98193.97
2023-07-20T10:56:24.011Z,98190.53
2023-07-20T10:58:51.475Z,98078.72
2023-07-20T11:01:19.330Z,98169.50
2023-07-20T11:03:57.214Z,98193.34
2023-07-20T11:06:27.244Z,98221.72
2023-07-20T11:09:06.252Z,98210.56
2023-07-20T11:11:37.899Z,98180.38
2023-07-20T11:14:10.097Z,98193.88
2023-07-20T11:16:48.303Z,98174.88
2023-07-20T11:22:01.516Z,98199.09
2023-07-20T11:24:29.323Z,98142.75
2023-07-20T11:26:56.645Z,98208.81
2023-07-20T11:29:32.257Z,98204.22
2023-07-20T11:32:05.522Z,98169.63
2023-07-20T11:34:35.284Z,98238.78
2023-07-20T11:39:33.986Z,98204.22
2023-07-20T11:42:01.195Z,98200.19
2023-07-20T11:44:30.233Z,98233.03
2023-07-20T11:47:09.500Z,98239.50
2023-07-20T11:49:42.499Z,98244.63
2023-07-20T11:52:12.084Z,98204.34
2023-07-20T11:54:40.600Z,98230.63
2023-07-20T11:57:08.486Z,98213.09
2023-07-20T11:59:35.790Z,98207.66
2023-07-20T12:02:04.908Z,98189.19
2023-07-20T12:04:34.056Z,98190.53
2023-07-20T12:07:01.776Z,98186.09
2023-07-20T12:09:41.753Z,98189.34
2023-07-20T12:12:13.724Z,98203.72
2023-07-20T12:14:41.210Z,98203.72
2023-07-20T12:17:10.903Z,98231.91
2023-07-20T12:19:41.608Z,98201.31
2023-07-20T12:22:09.116Z,98213.50
2023-07-20T12:24:36.512Z,98223.94
2023-07-20T12:27:05.231Z,98221.22
2023-07-20T12:29:38.645Z,98228.25
2023-07-20T12:32:06.678Z,98205.03
2023-07-20T12:34:34.210Z,98229.38
2023-07-20T12:37:04.742Z,98204.78
2023-07-20T12:39:32.319Z,98217.97
2023-07-20T12:41:59.465Z,98216.44
2023-07-20T12:44:26.525Z,98206.66
2023-07-20T12:46:53.624Z,98173.88
2023-07-20T12:49:21.214Z,98191.53
2023-07-20T12:51:48.525Z,98193.59
2023-07-20T12:54:15.791Z,98199.91
2023-07-20T12:59:12.884Z,98218.41
2023-07-20T13:01:42.755Z,98197.03
2023-07-20T13:06:40.841Z,98225.78
2023-07-20T13:09:26.812Z,98165.13
2023-07-20T13:11:57.226Z,98207.44
2023-07-20T13:14:57.841Z,98221.75
2023-07-20T13:17:28.936Z,98188.13
2023-07-20T13:19:56.689Z,98217.91
2023-07-20T13:22:24.959Z,98233.84
2023-07-20T13:24:52.411Z,98182.81
2023-07-20T13:27:20.179Z,98219.38
2023-07-20T13:29:48.774Z,98189.16
2023-07-20T13:32:16.948Z,98213.72
2023-07-20T13:34:48.785Z,98148.78
2023-07-20T13:37:17.423Z,98196.38
2023-07-20T13:39:45.245Z,98211.34
2023-07-20T13:42:13.983Z,98220.69
2023-07-20T13:44:42.519Z,98200.06
2023-07-20T13:49:47.779Z,98172.78
2023-07-20T13:54:50.894Z,98217.63
2023-07-20T13:57:19.114Z,98176.94
2023-07-20T13:59:46.429Z,98213.25
2023-07-20T14:04:46.683Z,98219.59
2023-07-20T14:07:16.832Z,98218.84
2023-07-20T14:12:16.746Z,98194.56
2023-07-20T14:14:45.680Z,98203.50
2023-07-20T14:17:13.026Z,98204.44
2023-07-20T14:19:40.165Z,98194.94
2023-07-20T14:22:07.372Z,98180.91
2023-07-20T14:24:34.496Z,98199.34
2023-07-20T14:27:02.144Z,98192.75
2023-07-20T14:29:32.722Z,98193.72
2023-07-20T14:32:00.402Z,98209.53
2023-07-20T14:34:27.727Z,98179.41
2023-07-20T14:36:55.075Z,98188.13
2023-07-20T14:39:22.505Z,98201.28
2023-07-20T14:41:52.090Z,98215.75
2023-07-20T14:44:19.190Z,98208.94
2023-07-20T14:46:58.383Z,98215.72
2023-07-20T14:49:33.460Z,98211.56
2023-07-20T14:52:01.814Z,98204.03
2023-07-20T14:54:29.158Z,98191.94
2023-07-20T14:56:57.562Z,98211.16
2023-07-20T14:59:24.801Z,98201.75
2023-07-20T15:01:52.459Z,98185.69
2023-07-20T15:04:19.657Z,98207.03
2023-07-20T15:06:46.732Z,98201.34
2023-07-20T15:09:13.823Z,98203.41
2023-07-20T15:11:40.988Z,98209.41
2023-07-20T15:14:08.116Z,98214.41
2023-07-20T15:16:36.762Z,98216.69
2023-07-20T15:19:04.100Z,98188.88
2023-07-20T15:21:32.219Z,98214.19
2023-07-20T15:23:59.834Z,98227.34
2023-07-20T15:26:27.181Z,98218.44
2023-07-20T15:28:54.377Z,98210.31
2023-07-20T15:32:00.282Z,98222.63
2023-07-20T15:34:08.884Z,98228.09
2023-07-20T15:36:36.049Z,98227.44
2023-07-20T15:39:03.221Z,98220.16
2023-07-20T15:41:31.428Z,98240.16
2023-07-20T15:43:58.698Z,98218.25
2023-07-20T15:46:38.223Z,98224.47
2023-07-20T15:49:05.959Z,98219.97
2023-07-20T15:51:42.740Z,98209.00
2023-07-20T15:54:11.824Z,98219.31
2023-07-20T15:56:40.513Z,98218.66
2023-07-20T15:59:11.043Z,98235.16
2023-07-20T16:01:40.284Z,98229.16
2023-07-20T16:04:09.818Z,98225.06
2023-07-20T16:06:37.437Z,98220.53
2023-07-20T16:09:08.142Z,98230.94
2023-07-20T16:11:37.618Z,98240.59
2023-07-20T16:14:07.306Z,98245.00
2023-07-20T16:16:36.416Z,98206.56
2023-07-20T16:19:06.885Z,98229.28
2023-07-20T16:21:34.246Z,98238.72
2023-07-20T16:24:01.808Z,98229.38
2023-07-20T16:26:29.117Z,98234.34
2023-07-20T16:31:26.574Z,98253.06
2023-07-20T16:34:05.807Z,98240.84
2023-07-20T16:44:06.343Z,98262.94
2023-07-20T16:49:10.443Z,98263.63
2023-07-20T16:51:37.671Z,98272.94
2023-07-20T16:54:06.496Z,98281.88
2023-07-20T16:56:33.699Z,98280.19
2023-07-20T16:59:00.908Z,98255.38
2023-07-20T17:01:27.992Z,98268.19
2023-07-20T17:03:56.089Z,98260.34
2023-07-20T17:06:23.374Z,98295.66
2023-07-20T17:08:51.007Z,98270.44
2023-07-20T17:11:18.340Z,98298.31
2023-07-20T17:13:45.699Z,98290.06
2023-07-20T17:16:12.915Z,98312.81
2023-07-20T17:18:39.990Z,98307.81
2023-07-20T17:21:07.094Z,98305.81
2023-07-20T17:31:04.918Z,98289.03
2023-07-20T17:33:32.096Z,98330.63
2023-07-20T17:40:59.538Z,98321.03
2023-07-20T17:43:26.722Z,98287.31
2023-07-20T17:45:54.953Z,98285.09
2023-07-20T17:48:22.807Z,98270.66
2023-07-20T17:50:49.989Z,98317.47
2023-07-20T17:53:17.244Z,98301.28
2023-07-20T17:55:45.264Z,98306.09
2023-07-20T17:58:12.694Z,98315.34
2023-07-20T18:00:39.986Z,98318.75
2023-07-20T18:03:07.219Z,98319.13
2023-07-20T18:05:34.341Z,98332.75
2023-07-20T18:08:01.369Z,98328.63
2023-07-20T18:10:28.561Z,98335.34
2023-07-20T18:12:55.767Z,98309.69
2023-07-20T18:15:23.034Z,98316.75
2023-07-20T18:17:50.229Z,98329.91
2023-07-20T18:20:17.443Z,98327.56
2023-07-20T18:22:44.533Z,98320.94
2023-07-20T18:25:11.650Z,98317.56
2023-07-20T18:27:39.561Z,98321.53
2023-07-20T18:30:07.565Z,98312.91
2023-07-20T18:32:34.923Z,98302.75
2023-07-20T18:35:03.937Z,98315.28
2023-07-20T18:37:31.445Z,98307.72
2023-07-20T18:39:58.793Z,98298.06
2023-07-20T18:42:25.890Z,98297.69
2023-07-20T18:44:52.934Z,98302.06
2023-07-20T18:47:19.992Z,98309.38
2023-07-20T18:49:47.100Z,98313.28
2023-07-20T18:52:14.177Z,98309.81
2023-07-20T18:54:41.444Z,98318.91
2023-07-20T18:57:09.770Z,98307.16
2023-07-20T18:59:36.934Z,98327.50
2023-07-20T19:02:04.642Z,98322.41
2023-07-20T19:04:31.607Z,98304.56
2023-07-20T19:06:58.887Z,98329.63
2023-07-20T19:09:26.060Z,98288.53
2023-07-20T19:11:55.959Z,98336.28
2023-07-20T19:14:23.678Z,98333.91
2023-07-20T19:16:50.725Z,98328.19
2023-07-20T19:19:21.497Z,98306.97
2023-07-20T19:21:48.943Z,98341.81
2023-07-20T19:24:16.089Z,98297.72
2023-07-20T19:26:43.410Z,98330.75
2023-07-20T19:29:10.452Z,98331.69
2023-07-20T19:31:37.587Z,98343.28
2023-07-20T19:34:05.195Z,98332.78
2023-07-20T19:36:32.243Z,98333.94
2023-07-20T19:39:00.747Z,98337.91
2023-07-20T19:41:28.531Z,98312.97
2023-07-20T19:43:55.761Z,98333.81
2023-07-20T19:46:23.085Z,98345.59
2023-07-20T19:48:50.293Z,98335.72
2023-07-20T19:51:17.367Z,98323.00
2023-07-20T19:56:14.765Z,98334.28
2023-07-20T19:58:42.855Z,98320.00
2023-07-20T20:03:41.566Z,98345.69
2023-07-20T20:06:11.180Z,98343.41
2023-07-20T20:08:39.295Z,98352.44
2023-07-20T20:13:36.500Z,98345.28
2023-07-20T20:16:05.596Z,98358.41
2023-07-20T20:18:34.047Z,98366.66
2023-07-20T20:21:02.198Z,98377.63
2023-07-20T20:23:29.198Z,98369.97
2023-07-20T20:25:56.325Z,98340.78
2023-07-20T20:28:25.472Z,98345.16
2023-07-20T20:30:53.664Z,98359.75
2023-07-20T20:33:25.443Z,98361.09
2023-07-20T20:35:54.376Z,98324.16
2023-07-20T20:38:23.177Z,98371.28
2023-07-20T20:40:52.935Z,98364.59
2023-07-20T20:43:21.050Z,98373.50
2023-07-20T20:45:48.063Z,98373.72
2023-07-20T20:48:15.190Z,98373.88
2023-07-20T20:50:45.542Z,98373.88
2023-07-20T20:53:13.938Z,98365.47
2023-07-20T20:55:41.498Z,98358.47
2023-07-20T20:58:10.120Z,98375.03
2023-07-20T21:00:37.693Z,98368.97
2023-07-20T21:03:04.912Z,98371.59
2023-07-20T21:05:37.277Z,98362.03
2023-07-20T21:08:07.800Z,98374.38
2023-07-20T21:10:35.822Z,98364.88
2023-07-20T21:13:06.394Z,98374.59
2023-07-20T21:15:33.867Z,98375.75
2023-07-20T21:18:01.360Z,98361.66
2023-07-20T21:20:28.550Z,98390.50
2023-07-20T21:22:55.745Z,98389.72
2023-07-20T21:25:22.795Z,98382.03
2023-07-20T21:27:49.823Z,98381.88
2023-07-20T21:30:16.836Z,98370.91
2023-07-20T21:32:45.081Z,98382.97
2023-07-20T21:35:12.427Z,98397.31
2023-07-20T21:37:39.696Z,98383.66
2023-07-20T21:40:08.112Z,98394.16
2023-07-20T21:42:36.536Z,98345.72
2023-07-20T21:45:04.700Z,98375.94
2023-07-20T21:47:32.530Z,98393.28
2023-07-20T21:50:00.628Z,98403.94
2023-07-20T21:52:28.109Z,98409.47
2023-07-20T21:54:55.140Z,98394.78
2023-07-20T21:57:22.227Z,98407.00
2023-07-20T21:59:49.405Z,98375.84
2023-07-20T22:02:16.550Z,98400.22
2023-07-20T22:04:43.725Z,98404.44
2023-07-20T22:07:17.212Z,98374.06
2023-07-20T22:09:45.246Z,98390.25
2023-07-20T22:12:14.077Z,98400.66
2023-07-20T22:14:42.943Z,98395.53
2023-07-20T22:17:12.440Z,98394.50
2023-07-20T22:19:39.730Z,98367.91
2023-07-20T22:22:07.345Z,98389.47
2023-07-20T22:24:36.586Z,98377.34
2023-07-20T22:27:04.875Z,98390.47
2023-07-20T22:29:35.487Z,98364.56
2023-07-20T22:32:07.572Z,98386.16
2023-07-20T22:34:34.745Z,98378.38
2023-07-20T22:37:03.400Z,98390.59
2023-07-20T22:39:33.032Z,98399.34
2023-07-20T22:42:04.102Z,98352.56
2023-07-20T22:44:32.364Z,98392.44
2023-07-20T22:47:00.412Z,98397.84
2023-07-20T22:49:27.568Z,98364.13
2023-07-20T22:51:55.133Z,98381.59
2023-07-20T22:54:22.469Z,98392.03
2023-07-20T22:56:49.597Z,98377.22
2023-07-20T22:59:18.649Z,98352.91
2023-07-20T23:01:46.080Z,98391.25
2023-07-20T23:04:13.815Z,98387.81
2023-07-20T23:06:45.031Z,98375.63
2023-07-20T23:09:14.749Z,98391.44
2023-07-20T23:11:42.434Z,98384.34
2023-07-20T23:14:09.574Z,98381.84
2023-07-20T23:16:36.859Z,98379.97
2023-07-20T23:19:04.021Z,98393.03
2023-07-20T23:21:31.153Z,98339.34
2023-07-20T23:23:59.582Z,98389.44
2023-07-20T23:26:27.772Z,98385.19
2023-07-20T23:28:55.444Z,98371.34
2023-07-20T23:31:24.412Z,98391.25
2023-07-20T23:33:51.894Z,98363.50
2023-07-20T23:36:21.806Z,98377.34
2023-07-20T23:38:49.739Z,98386.31
2023-07-20T23:41:17.014Z,98376.75
2023-07-20T23:43:44.355Z,98364.09
2023-07-20T23:46:12.562Z,98381.59
2023-07-20T23:48:43.787Z,98369.56
2023-07-20T23:51:15.324Z,98360.72
2023-07-20T23:53:42.958Z,98374.69
2023-07-20T23:56:10.644Z,98381.75
2023-07-20T23:58:39.249Z,98366.13
